sensor_id;sensor_type;location;lat;lon;timestamp;pressure;altitude;pressure_sealevel;temperature;humidity
12247;BME280;6186;52.022;4.692;2023-04-25T00:00:47;101242.38;;;8.07;100.00
12247;BME280;6186;52.022;4.692;2023-04-25T00:03:12;101242.38;;;8.07;100.00
12247;BME280;6186;52.022;4.692;2023-04-25T00:05:38;101246.78;;;8.04;100.00
12247;BME280;6186;52.022;4.692;2023-04-25T00:08:04;101245.03;;;8.01;100.00
12247;BME280;6186;52.022;4.692;2023-04-25T00:10:29;101247.69;;;8.00;100.00
12247;BME280;6186;52.022;4.692;2023-04-25T00:12:54;101245.91;;;7.99;100.00
12247;BME280;6186;52.022;4.692;2023-04-25T00:15:19;101259.03;;;7.99;100.00
12247;BME280;6186;52.022;4.692;2023-04-25T00:17:45;101263.44;;;7.95;100.00
12247;BME280;6186;52.022;4.692;2023-04-25T00:20:10;101262.56;;;7.93;100.00
12247;BME280;6186;52.022;4.692;2023-04-25T00:22:36;101264.34;;;7.91;100.00
12247;BME280;6186;52.022;4.692;2023-04-25T00:25:01;101258.28;;;7.85;100.00
12247;BME280;6186;52.022;4.692;2023-04-25T00:27:26;101258.25;;;7.88;100.00
12247;BME280;6186;52.022;4.692;2023-04-25T00:29:52;101263.53;;;7.85;100.00
12247;BME280;6186;52.022;4.692;2023-04-25T00:32:17;101258.28;;;7.82;100.00
12247;BME280;6186;52.022;4.692;2023-04-25T00:34:42;101253.13;;;7.76;100.00
12247;BME280;6186;52.022;4.692;2023-04-25T00:37:08;101258.34;;;7.74;100.00
12247;BME280;6186;52.022;4.692;2023-04-25T00:39:33;101259.22;;;7.78;100.00
12247;BME280;6186;52.022;4.692;2023-04-25T00:41:58;101267.06;;;7.76;100.00
12247;BME280;6186;52.022;4.692;2023-04-25T00:44:24;101270.59;;;7.74;100.00
12247;BME280;6186;52.022;4.692;2023-04-25T00:46:49;101275.00;;;7.70;100.00
12247;BME280;6186;52.022;4.692;2023-04-25T00:49:15;101259.31;;;7.63;100.00
12247;BME280;6186;52.022;4.692;2023-04-25T00:51:40;101268.03;;;7.66;100.00
12247;BME280;6186;52.022;4.692;2023-04-25T00:54:06;101268.88;;;7.67;100.00
12247;BME280;6186;52.022;4.692;2023-04-25T00:56:32;101274.13;;;7.70;100.00
12247;BME280;6186;52.022;4.692;2023-04-25T00:58:57;101276.69;;;7.73;100.00
12247;BME280;6186;52.022;4.692;2023-04-25T01:01:22;101275.84;;;7.72;100.00
12247;BME280;6186;52.022;4.692;2023-04-25T01:03:49;101281.09;;;7.74;100.00
12247;BME280;6186;52.022;4.692;2023-04-25T01:06:14;101277.53;;;7.76;100.00
12247;BME280;6186;52.022;4.692;2023-04-25T01:08:40;101281.03;;;7.77;100.00
12247;BME280;6186;52.022;4.692;2023-04-25T01:11:05;101281.91;;;7.79;100.00
12247;BME280;6186;52.022;4.692;2023-04-25T01:13:32;101281.03;;;7.78;100.00
12247;BME280;6186;52.022;4.692;2023-04-25T01:16:02;101281.94;;;7.76;100.00
12247;BME280;6186;52.022;4.692;2023-04-25T01:18:27;101274.09;;;7.73;100.00
12247;BME280;6186;52.022;4.692;2023-04-25T01:20:53;101270.63;;;7.64;100.00
12247;BME280;6186;52.022;4.692;2023-04-25T01:23:22;101269.81;;;7.63;100.00
12247;BME280;6186;52.022;4.692;2023-04-25T01:25:50;101278.53;;;7.61;100.00
12247;BME280;6186;52.022;4.692;2023-04-25T01:28:18;101280.28;;;7.59;100.00
12247;BME280;6186;52.022;4.692;2023-04-25T01:30:44;101289.91;;;7.57;100.00
12247;BME280;6186;52.022;4.692;2023-04-25T01:33:11;101296.03;;;7.56;100.00
12247;BME280;6186;52.022;4.692;2023-04-25T01:35:38;101292.53;;;7.54;100.00
12247;BME280;6186;52.022;4.692;2023-04-25T01:38:04;101303.88;;;7.53;100.00
12247;BME280;6186;52.022;4.692;2023-04-25T01:40:29;101296.91;;;7.49;100.00
12247;BME280;6186;52.022;4.692;2023-04-25T01:42:55;101285.66;;;7.35;100.00
12247;BME280;6186;52.022;4.692;2023-04-25T01:45:20;101303.06;;;7.44;100.00
12247;BME280;6186;52.022;4.692;2023-04-25T01:47:45;101303.09;;;7.41;100.00
12247;BME280;6186;52.022;4.692;2023-04-25T01:50:11;101305.72;;;7.36;100.00
12247;BME280;6186;52.022;4.692;2023-04-25T01:52:36;101310.97;;;7.33;100.00
12247;BME280;6186;52.022;4.692;2023-04-25T01:55:02;101307.53;;;7.28;100.00
12247;BME280;6186;52.022;4.692;2023-04-25T01:57:27;101309.28;;;7.26;100.00
12247;BME280;6186;52.022;4.692;2023-04-25T02:00:01;101311.03;;;7.24;100.00
12247;BME280;6186;52.022;4.692;2023-04-25T02:02:26;101312.78;;;7.24;100.00
12247;BME280;6186;52.022;4.692;2023-04-25T02:04:52;101314.53;;;7.22;100.00
12247;BME280;6186;52.022;4.692;2023-04-25T02:07:17;101315.41;;;7.21;100.00
12247;BME280;6186;52.022;4.692;2023-04-25T02:09:42;101313.69;;;7.17;100.00
12247;BME280;6186;52.022;4.692;2023-04-25T02:12:09;101318.00;;;7.22;100.00
12247;BME280;6186;52.022;4.692;2023-04-25T02:14:35;101307.53;;;7.19;100.00
12247;BME280;6186;52.022;4.692;2023-04-25T02:17:00;101310.16;;;7.24;100.00
12247;BME280;6186;52.022;4.692;2023-04-25T02:19:25;101315.38;;;7.25;100.00
12247;BME280;6186;52.022;4.692;2023-04-25T02:21:50;101311.88;;;7.28;100.00
12247;BME280;6186;52.022;4.692;2023-04-25T02:24:15;101320.63;;;7.28;100.00
12247;BME280;6186;52.022;4.692;2023-04-25T02:26:41;101321.47;;;7.30;100.00
12247;BME280;6186;52.022;4.692;2023-04-25T02:29:06;101313.63;;;7.30;100.00
12247;BME280;6186;52.022;4.692;2023-04-25T02:31:31;101309.25;;;7.29;100.00
12247;BME280;6186;52.022;4.692;2023-04-25T02:33:56;101314.47;;;7.32;100.00
12247;BME280;6186;52.022;4.692;2023-04-25T02:36:22;101319.72;;;7.35;100.00
12247;BME280;6186;52.022;4.692;2023-04-25T02:38:47;101316.19;;;7.36;100.00
12247;BME280;6186;52.022;4.692;2023-04-25T02:41:12;101324.06;;;7.39;100.00
12247;BME280;6186;52.022;4.692;2023-04-25T02:43:37;101306.59;;;7.32;100.00
12247;BME280;6186;52.022;4.692;2023-04-25T02:46:03;101311.81;;;7.38;100.00
12247;BME280;6186;52.022;4.692;2023-04-25T02:48:28;101322.28;;;7.44;100.00
12247;BME280;6186;52.022;4.692;2023-04-25T02:50:54;101323.16;;;7.45;100.00
12247;BME280;6186;52.022;4.692;2023-04-25T02:53:19;101318.78;;;7.42;100.00
12247;BME280;6186;52.022;4.692;2023-04-25T02:55:44;101316.16;;;7.48;100.00
12247;BME280;6186;52.022;4.692;2023-04-25T02:58:09;101319.63;;;7.50;100.00
12247;BME280;6186;52.022;4.692;2023-04-25T03:00:35;101307.44;;;7.46;100.00
12247;BME280;6186;52.022;4.692;2023-04-25T03:03:00;101313.50;;;7.53;100.00
12247;BME280;6186;52.022;4.692;2023-04-25T03:05:25;101326.59;;;7.54;100.00
12247;BME280;6186;52.022;4.692;2023-04-25T03:07:50;101320.47;;;7.54;100.00
12247;BME280;6186;52.022;4.692;2023-04-25T03:10:15;101323.09;;;7.54;100.00
12247;BME280;6186;52.022;4.692;2023-04-25T03:12:41;101310.91;;;7.48;100.00
12247;BME280;6186;52.022;4.692;2023-04-25T03:15:06;101318.75;;;7.54;100.00
12247;BME280;6186;52.022;4.692;2023-04-25T03:17:31;101323.97;;;7.54;100.00
12247;BME280;6186;52.022;4.692;2023-04-25T03:19:57;101323.09;;;7.55;100.00
12247;BME280;6186;52.022;4.692;2023-04-25T03:22:23;101330.09;;;7.55;100.00
12247;BME280;6186;52.022;4.692;2023-04-25T03:24:49;101317.88;;;7.48;100.00
12247;BME280;6186;52.022;4.692;2023-04-25T03:27:14;101333.56;;;7.55;100.00
12247;BME280;6186;52.022;4.692;2023-04-25T03:29:39;101337.06;;;7.54;100.00
12247;BME280;6186;52.022;4.692;2023-04-25T03:32:05;101336.19;;;7.55;100.00
12247;BME280;6186;52.022;4.692;2023-04-25T03:34:30;101337.03;;;7.57;100.00
12247;BME280;6186;52.022;4.692;2023-04-25T03:36:55;101332.69;;;7.59;100.00
12247;BME280;6186;52.022;4.692;2023-04-25T03:39:20;101339.63;;;7.63;100.00
12247;BME280;6186;52.022;4.692;2023-04-25T03:41:46;101339.63;;;7.65;100.00
12247;BME280;6186;52.022;4.692;2023-04-25T03:44:11;101340.50;;;7.67;100.00
12247;BME280;6186;52.022;4.692;2023-04-25T03:46:36;101343.13;;;7.67;100.00
12247;BME280;6186;52.022;4.692;2023-04-25T03:49:01;101345.72;;;7.69;100.00
12247;BME280;6186;52.022;4.692;2023-04-25T03:51:26;101337.84;;;7.69;100.00
12247;BME280;6186;52.022;4.692;2023-04-25T03:53:52;101335.31;;;7.63;100.00
12247;BME280;6186;52.022;4.692;2023-04-25T03:56:17;101328.31;;;7.61;100.00
12247;BME280;6186;52.022;4.692;2023-04-25T03:58:43;101341.38;;;7.66;100.00
12247;BME280;6186;52.022;4.692;2023-04-25T04:01:08;101347.50;;;7.63;100.00
12247;BME280;6186;52.022;4.692;2023-04-25T04:03:34;101352.69;;;7.71;100.00
12247;BME280;6186;52.022;4.692;2023-04-25T04:05:59;101360.56;;;7.71;100.00
12247;BME280;6186;52.022;4.692;2023-04-25T04:08:25;101356.22;;;7.66;100.00
12247;BME280;6186;52.022;4.692;2023-04-25T04:10:50;101368.44;;;7.70;100.00
12247;BME280;6186;52.022;4.692;2023-04-25T04:13:15;101366.69;;;7.69;100.00
12247;BME280;6186;52.022;4.692;2023-04-25T04:15:40;101362.31;;;7.69;100.00
12247;BME280;6186;52.022;4.692;2023-04-25T04:18:06;101363.19;;;7.70;100.00
12247;BME280;6186;52.022;4.692;2023-04-25T04:20:31;101362.34;;;7.66;100.00
12247;BME280;6186;52.022;4.692;2023-04-25T04:22:56;101361.50;;;7.63;100.00
12247;BME280;6186;52.022;4.692;2023-04-25T04:25:21;101371.94;;;7.66;100.00
12247;BME280;6186;52.022;4.692;2023-04-25T04:27:47;101373.66;;;7.67;100.00
12247;BME280;6186;52.022;4.692;2023-04-25T04:30:12;101380.66;;;7.68;100.00
12247;BME280;6186;52.022;4.692;2023-04-25T04:32:37;101371.06;;;7.65;100.00
12247;BME280;6186;52.022;4.692;2023-04-25T04:35:03;101371.94;;;7.67;100.00
12247;BME280;6186;52.022;4.692;2023-04-25T04:37:28;101378.91;;;7.67;100.00
12247;BME280;6186;52.022;4.692;2023-04-25T04:39:53;101373.72;;;7.62;100.00
12247;BME280;6186;52.022;4.692;2023-04-25T04:42:19;101377.22;;;7.56;100.00
12247;BME280;6186;52.022;4.692;2023-04-25T04:44:44;101394.66;;;7.63;100.00
12247;BME280;6186;52.022;4.692;2023-04-25T04:47:09;101399.91;;;7.63;100.00
12247;BME280;6186;52.022;4.692;2023-04-25T04:49:34;101398.16;;;7.59;100.00
12247;BME280;6186;52.022;4.692;2023-04-25T04:51:59;101394.72;;;7.54;100.00
12247;BME280;6186;52.022;4.692;2023-04-25T04:54:25;101393.00;;;7.47;100.00
12247;BME280;6186;52.022;4.692;2023-04-25T04:56:50;101403.47;;;7.43;100.00
12247;BME280;6186;52.022;4.692;2023-04-25T04:59:16;101400.88;;;7.40;100.00
12247;BME280;6186;52.022;4.692;2023-04-25T05:01:41;101393.91;;;7.31;100.00
12247;BME280;6186;52.022;4.692;2023-04-25T05:04:06;101406.09;;;7.37;100.00
12247;BME280;6186;52.022;4.692;2023-04-25T05:06:31;101400.00;;;7.36;100.00
12247;BME280;6186;52.022;4.692;2023-04-25T05:08:57;101410.47;;;7.36;100.00
12247;BME280;6186;52.022;4.692;2023-04-25T05:11:23;101410.50;;;7.38;100.00
12247;BME280;6186;52.022;4.692;2023-04-25T05:13:50;101420.94;;;7.39;100.00
12247;BME280;6186;52.022;4.692;2023-04-25T05:16:16;101411.34;;;7.37;100.00
12247;BME280;6186;52.022;4.692;2023-04-25T05:18:41;101427.06;;;7.41;100.00
12247;BME280;6186;52.022;4.692;2023-04-25T05:21:07;101426.16;;;7.44;100.00
12247;BME280;6186;52.022;4.692;2023-04-25T05:23:32;101431.41;;;7.42;100.00
12247;BME280;6186;52.022;4.692;2023-04-25T05:25:57;101430.53;;;7.34;100.00
12247;BME280;6186;52.022;4.692;2023-04-25T05:28:23;101437.53;;;7.38;100.00
12247;BME280;6186;52.022;4.692;2023-04-25T05:30:48;101447.13;;;7.39;100.00
12247;BME280;6186;52.022;4.692;2023-04-25T05:33:14;101444.53;;;7.33;100.00
12247;BME280;6186;52.022;4.692;2023-04-25T05:35:39;101352.19;;;6.71;100.00
12247;BME280;6186;52.022;4.692;2023-04-25T05:38:04;101459.34;;;7.43;100.00
12247;BME280;6186;52.022;4.692;2023-04-25T05:40:29;101462.84;;;7.45;100.00
12247;BME280;6186;52.022;4.692;2023-04-25T05:42:55;101479.41;;;7.44;100.00
12247;BME280;6186;52.022;4.692;2023-04-25T05:45:20;101483.78;;;7.45;100.00
12247;BME280;6186;52.022;4.692;2023-04-25T05:47:45;101487.25;;;7.46;100.00
12247;BME280;6186;52.022;4.692;2023-04-25T05:50:10;101497.75;;;7.44;100.00
12247;BME280;6186;52.022;4.692;2023-04-25T05:52:35;101503.00;;;7.44;100.00
12247;BME280;6186;52.022;4.692;2023-04-25T05:55:01;101497.78;;;7.41;100.00
12247;BME280;6186;52.022;4.692;2023-04-25T05:57:27;101491.66;;;7.39;100.00
12247;BME280;6186;52.022;4.692;2023-04-25T05:59:53;101487.31;;;7.35;100.00
12247;BME280;6186;52.022;4.692;2023-04-25T06:02:19;101495.16;;;7.34;100.00
12247;BME280;6186;52.022;4.692;2023-04-25T06:04:45;101500.41;;;7.35;100.00
12247;BME280;6186;52.022;4.692;2023-04-25T06:07:10;101510.88;;;7.34;100.00
12247;BME280;6186;52.022;4.692;2023-04-25T06:09:35;101508.25;;;7.34;100.00
12247;BME280;6186;52.022;4.692;2023-04-25T06:12:00;101517.84;;;7.33;100.00
12247;BME280;6186;52.022;4.692;2023-04-25T06:14:26;101523.97;;;7.35;100.00
12247;BME280;6186;52.022;4.692;2023-04-25T06:16:51;101517.84;;;7.36;100.00
12247;BME280;6186;52.022;4.692;2023-04-25T06:19:16;101536.16;;;7.42;100.00
12247;BME280;6186;52.022;4.692;2023-04-25T06:21:43;101536.19;;;7.35;100.00
12247;BME280;6186;52.022;4.692;2023-04-25T06:24:08;101536.16;;;7.36;100.00
12247;BME280;6186;52.022;4.692;2023-04-25T06:26:34;101532.69;;;7.31;100.00
12247;BME280;6186;52.022;4.692;2023-04-25T06:28:59;101531.81;;;7.31;100.00
12247;BME280;6186;52.022;4.692;2023-04-25T06:31:24;101527.47;;;7.30;100.00
12247;BME280;6186;52.022;4.692;2023-04-25T06:33:49;101526.59;;;7.29;100.00
12247;BME280;6186;52.022;4.692;2023-04-25T06:36:14;101530.06;;;7.34;100.00
12247;BME280;6186;52.022;4.692;2023-04-25T06:38:40;101534.44;;;7.35;100.00
12247;BME280;6186;52.022;4.692;2023-04-25T06:41:05;101535.28;;;7.42;100.00
12247;BME280;6186;52.022;4.692;2023-04-25T06:43:30;101537.03;;;7.46;100.00
12247;BME280;6186;52.022;4.692;2023-04-25T06:45:56;101538.78;;;7.48;100.00
12247;BME280;6186;52.022;4.692;2023-04-25T06:48:21;101539.66;;;7.50;100.00
12247;BME280;6186;52.022;4.692;2023-04-25T06:50:46;101544.88;;;7.53;100.00
12247;BME280;6186;52.022;4.692;2023-04-25T06:53:11;101539.63;;;7.58;100.00
12247;BME280;6186;52.022;4.692;2023-04-25T06:55:36;101533.53;;;7.53;100.00
12247;BME280;6186;52.022;4.692;2023-04-25T06:58:02;101549.22;;;7.67;100.00
12247;BME280;6186;52.022;4.692;2023-04-25T07:00:27;101542.22;;;7.73;100.00
12247;BME280;6186;52.022;4.692;2023-04-25T07:02:52;101540.47;;;7.81;100.00
12247;BME280;6186;52.022;4.692;2023-04-25T07:05:17;101545.66;;;7.90;100.00
12247;BME280;6186;52.022;4.692;2023-04-25T07:07:43;101540.41;;;7.99;100.00
12247;BME280;6186;52.022;4.692;2023-04-25T07:10:08;101537.72;;;8.08;100.00
12247;BME280;6186;52.022;4.692;2023-04-25T07:12:33;101536.81;;;8.18;100.00
12247;BME280;6186;52.022;4.692;2023-04-25T07:14:58;101541.22;;;8.27;100.00
12247;BME280;6186;52.022;4.692;2023-04-25T07:17:24;101542.03;;;8.38;100.00
12247;BME280;6186;52.022;4.692;2023-04-25T07:19:49;101541.94;;;8.48;100.00
12247;BME280;6186;52.022;4.692;2023-04-25T07:22:14;101549.78;;;8.59;100.00
12247;BME280;6186;52.022;4.692;2023-04-25T07:24:39;101537.47;;;8.66;100.00
12247;BME280;6186;52.022;4.692;2023-04-25T07:27:05;101554.84;;;8.85;100.00
12247;BME280;6186;52.022;4.692;2023-04-25T07:29:30;101555.66;;;8.99;100.00
12247;BME280;6186;52.022;4.692;2023-04-25T07:31:55;101554.66;;;9.10;100.00
12247;BME280;6186;52.022;4.692;2023-04-25T07:34:20;101555.41;;;9.29;100.00
12247;BME280;6186;52.022;4.692;2023-04-25T07:36:46;101550.97;;;9.34;100.00
12247;BME280;6186;52.022;4.692;2023-04-25T07:39:11;101564.91;;;9.42;100.00
12247;BME280;6186;52.022;4.692;2023-04-25T07:41:36;101550.97;;;9.34;100.00
12247;BME280;6186;52.022;4.692;2023-04-25T07:44:01;101567.63;;;9.33;100.00
12247;BME280;6186;52.022;4.692;2023-04-25T07:46:27;101566.75;;;9.29;100.00
12247;BME280;6186;52.022;4.692;2023-04-25T07:48:52;101570.25;;;9.30;100.00
12247;BME280;6186;52.022;4.692;2023-04-25T07:51:17;101564.13;;;9.29;100.00
12247;BME280;6186;52.022;4.692;2023-04-25T07:53:42;101565.84;;;9.33;100.00
12247;BME280;6186;52.022;4.692;2023-04-25T07:56:07;101566.69;;;9.37;100.00
12247;BME280;6186;52.022;4.692;2023-04-25T07:58:33;101571.03;;;9.42;100.00
12247;BME280;6186;52.022;4.692;2023-04-25T08:00:58;101577.06;;;9.54;100.00
12247;BME280;6186;52.022;4.692;2023-04-25T08:03:23;101573.41;;;9.73;100.00
12247;BME280;6186;52.022;4.692;2023-04-25T08:05:48;101576.78;;;9.84;100.00
12247;BME280;6186;52.022;4.692;2023-04-25T08:08:14;101578.50;;;9.88;100.00
12247;BME280;6186;52.022;4.692;2023-04-25T08:10:39;101597.75;;;9.87;100.00
12247;BME280;6186;52.022;4.692;2023-04-25T08:13:04;101595.94;;;9.95;100.00
12247;BME280;6186;52.022;4.692;2023-04-25T08:15:29;101592.41;;;9.97;100.00
12247;BME280;6186;52.022;4.692;2023-04-25T08:17:55;101608.13;;;10.02;100.00
12247;BME280;6186;52.022;4.692;2023-04-25T08:20:20;101605.47;;;10.06;100.00
12247;BME280;6186;52.022;4.692;2023-04-25T08:22:45;101603.53;;;10.22;100.00
12247;BME280;6186;52.022;4.692;2023-04-25T08:25:10;101605.91;;;10.46;100.00
12247;BME280;6186;52.022;4.692;2023-04-25T08:27:35;101601.13;;;10.74;100.00
12247;BME280;6186;52.022;4.692;2023-04-25T08:30:02;101611.31;;;10.99;100.00
12247;BME280;6186;52.022;4.692;2023-04-25T08:32:27;101624.25;;;11.14;100.00
12247;BME280;6186;52.022;4.692;2023-04-25T08:34:52;101629.41;;;11.20;100.00
12247;BME280;6186;52.022;4.692;2023-04-25T08:37:17;101632.09;;;11.17;100.00
12247;BME280;6186;52.022;4.692;2023-04-25T08:39:43;101633.03;;;11.16;100.00
12247;BME280;6186;52.022;4.692;2023-04-25T08:42:08;101635.72;;;11.12;100.00
12247;BME280;6186;52.022;4.692;2023-04-25T08:44:34;101638.50;;;11.01;100.00
12247;BME280;6186;52.022;4.692;2023-04-25T08:47:02;101643.97;;;10.86;100.00
12247;BME280;6186;52.022;4.692;2023-04-25T08:49:28;101654.69;;;10.74;100.00
12247;BME280;6186;52.022;4.692;2023-04-25T08:51:59;101652.19;;;10.62;100.00
12247;BME280;6186;52.022;4.692;2023-04-25T08:54:27;101650.28;;;10.75;100.00
12247;BME280;6186;52.022;4.692;2023-04-25T08:56:54;101655.13;;;11.05;100.00
12247;BME280;6186;52.022;4.692;2023-04-25T08:59:21;101658.09;;;11.42;100.00
12247;BME280;6186;52.022;4.692;2023-04-25T09:01:46;101650.41;;;11.84;100.00
12247;BME280;6186;52.022;4.692;2023-04-25T09:04:12;101663.00;;;12.16;100.00
12247;BME280;6186;52.022;4.692;2023-04-25T09:06:37;101670.59;;;12.32;100.00
12247;BME280;6186;52.022;4.692;2023-04-25T09:09:04;101672.50;;;12.26;100.00
12247;BME280;6186;52.022;4.692;2023-04-25T09:11:29;101678.91;;;12.13;100.00
12247;BME280;6186;52.022;4.692;2023-04-25T09:14:13;101676.25;;;12.13;100.00
12247;BME280;6186;52.022;4.692;2023-04-25T09:17:05;101695.63;;;12.58;100.00
12247;BME280;6186;52.022;4.692;2023-04-25T09:19:32;101680.91;;;12.87;100.00
12247;BME280;6186;52.022;4.692;2023-04-25T09:22:00;101686.38;;;13.21;100.00
12247;BME280;6186;52.022;4.692;2023-04-25T09:24:40;101712.25;;;13.47;100.00
12247;BME280;6186;52.022;4.692;2023-04-25T09:27:07;101702.50;;;13.49;100.00
12247;BME280;6186;52.022;4.692;2023-04-25T09:29:35;101723.34;;;13.61;100.00
12247;BME280;6186;52.022;4.692;2023-04-25T09:34:44;101731.84;;;14.10;100.00
12247;BME280;6186;52.022;4.692;2023-04-25T09:37:10;101727.72;;;14.34;100.00
12247;BME280;6186;52.022;4.692;2023-04-25T09:39:37;101731.69;;;14.51;100.00
12247;BME280;6186;52.022;4.692;2023-04-25T09:42:03;101715.59;;;14.57;100.00
12247;BME280;6186;52.022;4.692;2023-04-25T09:44:29;101729.44;;;14.67;100.00
12247;BME280;6186;52.022;4.692;2023-04-25T09:46:54;101741.88;;;14.95;100.00
12247;BME280;6186;52.022;4.692;2023-04-25T09:49:20;101741.09;;;15.23;100.00
12247;BME280;6186;52.022;4.692;2023-04-25T09:51:58;101737.41;;;15.56;100.00
12247;BME280;6186;52.022;4.692;2023-04-25T09:54:27;101738.31;;;15.84;100.00
12247;BME280;6186;52.022;4.692;2023-04-25T09:56:53;101726.44;;;15.94;100.00
12247;BME280;6186;52.022;4.692;2023-04-25T09:59:20;101736.72;;;16.05;100.00
12247;BME280;6186;52.022;4.692;2023-04-25T10:01:46;101730.22;;;16.13;100.00
12247;BME280;6186;52.022;4.692;2023-04-25T10:04:12;101732.81;;;16.15;100.00
12247;BME280;6186;52.022;4.692;2023-04-25T10:06:41;101738.97;;;16.17;100.00
12247;BME280;6186;52.022;4.692;2023-04-25T10:09:07;101741.41;;;16.49;100.00
12247;BME280;6186;52.022;4.692;2023-04-25T10:11:33;101738.94;;;16.69;100.00
12247;BME280;6186;52.022;4.692;2023-04-25T10:14:00;101743.09;;;16.76;100.00
12247;BME280;6186;52.022;4.692;2023-04-25T10:16:25;101743.41;;;16.91;100.00
12247;BME280;6186;52.022;4.692;2023-04-25T10:18:51;101743.06;;;17.24;100.00
12247;BME280;6186;52.022;4.692;2023-04-25T10:21:17;101747.78;;;17.62;100.00
12247;BME280;6186;52.022;4.692;2023-04-25T10:23:43;101743.09;;;17.90;100.00
12247;BME280;6186;52.022;4.692;2023-04-25T10:26:09;101743.31;;;18.06;100.00
12247;BME280;6186;52.022;4.692;2023-04-25T10:28:57;101739.50;;;18.33;100.00
12247;BME280;6186;52.022;4.692;2023-04-25T10:31:23;101742.88;;;18.58;100.00
12247;BME280;6186;52.022;4.692;2023-04-25T10:33:48;101735.44;;;18.85;100.00
12247;BME280;6186;52.022;4.692;2023-04-25T10:36:14;101733.03;;;18.58;100.00
12247;BME280;6186;52.022;4.692;2023-04-25T10:38:43;101735.72;;;17.97;100.00
12247;BME280;6186;52.022;4.692;2023-04-25T10:41:09;101736.41;;;17.35;100.00
12247;BME280;6186;52.022;4.692;2023-04-25T10:44:00;101743.94;;;17.01;100.00
12247;BME280;6186;52.022;4.692;2023-04-25T10:46:28;101745.81;;;16.50;100.00
12247;BME280;6186;52.022;4.692;2023-04-25T10:49:03;101742.56;;;15.89;100.00
12247;BME280;6186;52.022;4.692;2023-04-25T10:51:32;101739.72;;;15.94;100.00
12247;BME280;6186;52.022;4.692;2023-04-25T10:54:06;101741.03;;;16.33;100.00
12247;BME280;6186;52.022;4.692;2023-04-25T10:59:05;101753.88;;;16.96;100.00
12247;BME280;6186;52.022;4.692;2023-04-25T11:01:48;101749.31;;;16.50;100.00
12247;BME280;6186;52.022;4.692;2023-04-25T11:04:20;101756.25;;;15.76;100.00
12247;BME280;6186;52.022;4.692;2023-04-25T11:09:30;101751.94;;;16.52;100.00
12247;BME280;6186;52.022;4.692;2023-04-25T11:11:56;101746.19;;;17.35;100.00
12247;BME280;6186;52.022;4.692;2023-04-25T11:14:22;101751.50;;;18.01;100.00
12247;BME280;6186;52.022;4.692;2023-04-25T11:16:47;101748.03;;;17.99;100.00
12247;BME280;6186;52.022;4.692;2023-04-25T11:19:12;101755.72;;;17.40;100.00
12247;BME280;6186;52.022;4.692;2023-04-25T11:21:38;101758.16;;;16.75;100.00
12247;BME280;6186;52.022;4.692;2023-04-25T11:24:04;101762.19;;;16.62;100.00
12247;BME280;6186;52.022;4.692;2023-04-25T11:26:30;101750.13;;;16.77;100.00
12247;BME280;6186;52.022;4.692;2023-04-25T11:28:58;101758.78;;;16.59;100.00
12247;BME280;6186;52.022;4.692;2023-04-25T11:31:24;101759.94;;;16.52;100.00
12247;BME280;6186;52.022;4.692;2023-04-25T11:33:50;101763.22;;;16.32;100.00
12247;BME280;6186;52.022;4.692;2023-04-25T11:36:15;101753.00;;;16.20;100.00
12247;BME280;6186;52.022;4.692;2023-04-25T11:38:40;101770.59;;;16.50;100.00
12247;BME280;6186;52.022;4.692;2023-04-25T11:41:05;101764.41;;;16.99;100.00
12247;BME280;6186;52.022;4.692;2023-04-25T11:43:31;101756.63;;;17.39;100.00
12247;BME280;6186;52.022;4.692;2023-04-25T11:45:56;101762.03;;;17.61;100.00
12247;BME280;6186;52.022;4.692;2023-04-25T11:48:22;101768.53;;;17.54;100.00
12247;BME280;6186;52.022;4.692;2023-04-25T11:50:47;101762.59;;;17.46;100.00
12247;BME280;6186;52.022;4.692;2023-04-25T11:53:12;101770.59;;;17.23;100.00
12247;BME280;6186;52.022;4.692;2023-04-25T11:55:37;101778.47;;;16.78;100.00
12247;BME280;6186;52.022;4.692;2023-04-25T11:58:03;101777.44;;;16.31;100.00
12247;BME280;6186;52.022;4.692;2023-04-25T12:00:29;101793.47;;;16.02;100.00
12247;BME280;6186;52.022;4.692;2023-04-25T12:02:56;101795.16;;;16.05;100.00
12247;BME280;6186;52.022;4.692;2023-04-25T12:05:27;101794.66;;;15.92;100.00
12247;BME280;6186;52.022;4.692;2023-04-25T12:07:52;101793.00;;;15.89;100.00
12247;BME280;6186;52.022;4.692;2023-04-25T12:10:18;101785.81;;;15.93;100.00
12247;BME280;6186;52.022;4.692;2023-04-25T12:12:45;101794.28;;;16.04;100.00
12247;BME280;6186;52.022;4.692;2023-04-25T12:15:14;101787.66;;;16.17;100.00
12247;BME280;6186;52.022;4.692;2023-04-25T12:17:40;101796.44;;;16.19;100.00
12247;BME280;6186;52.022;4.692;2023-04-25T12:20:16;101779.81;;;16.14;100.00
12247;BME280;6186;52.022;4.692;2023-04-25T12:22:44;101804.03;;;16.03;100.00
12247;BME280;6186;52.022;4.692;2023-04-25T12:25:09;101806.44;;;16.11;100.00
12247;BME280;6186;52.022;4.692;2023-04-25T12:27:35;101805.03;;;16.27;100.00
12247;BME280;6186;52.022;4.692;2023-04-25T12:30:00;101808.19;;;16.38;100.00
12247;BME280;6186;52.022;4.692;2023-04-25T12:32:25;101794.84;;;16.14;100.00
12247;BME280;6186;52.022;4.692;2023-04-25T12:34:50;101806.97;;;16.22;100.00
12247;BME280;6186;52.022;4.692;2023-04-25T12:37:16;101805.69;;;16.34;100.00
12247;BME280;6186;52.022;4.692;2023-04-25T12:39:41;101806.06;;;16.49;100.00
12247;BME280;6186;52.022;4.692;2023-04-25T12:42:06;101814.13;;;16.46;100.00
12247;BME280;6186;52.022;4.692;2023-04-25T12:44:32;101816.50;;;16.29;99.07
12247;BME280;6186;52.022;4.692;2023-04-25T12:46:57;101824.75;;;15.92;96.96
12247;BME280;6186;52.022;4.692;2023-04-25T12:49:22;101829.59;;;15.51;94.60
12247;BME280;6186;52.022;4.692;2023-04-25T12:51:47;101826.09;;;15.18;94.12
12247;BME280;6186;52.022;4.692;2023-04-25T12:54:12;101831.59;;;15.12;95.02
12247;BME280;6186;52.022;4.692;2023-04-25T12:56:38;101823.81;;;15.06;95.58
12247;BME280;6186;52.022;4.692;2023-04-25T12:59:03;101823.91;;;15.01;95.08